Time;durP1;ratioP1;P1;durP2;ratioP2;P2;SDS_P1;SDS_P2;PMS_P1;PMS_P2;Temp;Humidity;BMP_temperature;BMP_pressure;BME280_temperature;BME280_humidity;BME280_pressure;Samples;Min_cycle;Max_cycle;Signal;HPM_P1;HPM_P2
2022/07/05 00:00:01;;;;;;;2.85;2.25;;;16.10;99.90;;;;;;5093389;28;20685;-77
2022/07/05 00:02:28;;;;;;;6.88;2.42;;;16.10;99.90;;;;;;5092597;28;20252;-76
2022/07/05 00:04:55;;;;;;;3.72;2.03;;;16.10;99.90;;;;;;5093840;28;20198;-76
2022/07/05 00:07:22;;;;;;;4.63;2.58;;;16.10;99.90;;;;;;5093714;28;20210;-77
2022/07/05 00:09:51;;;;;;;3.15;2.10;;;16.20;99.90;;;;;;5074027;28;20564;-76
2022/07/05 00:12:21;;;;;;;4.85;3.08;;;16.20;99.90;;;;;;5092468;28;20207;-77
2022/07/05 00:14:49;;;;;;;3.22;1.90;;;16.20;99.90;;;;;;5093535;28;20206;-78
2022/07/05 00:17:16;;;;;;;5.68;2.58;;;16.10;99.90;;;;;;5093031;28;20288;-76
2022/07/05 00:19:43;;;;;;;5.25;2.45;;;16.10;99.90;;;;;;5092630;28;20293;-79
2022/07/05 00:22:10;;;;;;;4.40;3.10;;;16.10;99.90;;;;;;5094675;28;20244;-75
2022/07/05 00:24:37;;;;;;;3.85;2.60;;;16.10;99.90;;;;;;5086296;28;20302;-76
2022/07/05 00:27:05;;;;;;;3.25;2.83;;;16.00;99.90;;;;;;5093157;28;20293;-75
2022/07/05 00:29:33;;;;;;;4.38;2.88;;;15.90;99.90;;;;;;5092725;28;20276;-76
2022/07/05 00:32:00;;;;;;;5.63;2.17;;;15.90;99.90;;;;;;5091673;28;20206;-77
2022/07/05 00:34:27;;;;;;;4.13;3.05;;;16.00;99.90;;;;;;5092732;28;20210;-76
2022/07/05 00:36:54;;;;;;;4.47;3.15;;;15.90;99.90;;;;;;5093292;28;20628;-75
2022/07/05 00:39:24;;;;;;;4.90;2.55;;;15.80;99.90;;;;;;5099377;28;20287;-76
2022/07/05 00:41:50;;;;;;;5.88;2.75;;;15.70;99.90;;;;;;5089057;28;20248;-76
2022/07/05 00:44:17;;;;;;;3.83;3.20;;;15.80;99.90;;;;;;5093193;28;20631;-75
2022/07/05 00:46:46;;;;;;;4.43;2.50;;;15.70;99.90;;;;;;5090350;28;20282;-75
2022/07/05 00:49:13;;;;;;;4.22;3.00;;;15.70;99.90;;;;;;5087007;28;20228;-75
2022/07/05 00:51:40;;;;;;;5.15;2.78;;;15.70;99.90;;;;;;5091578;28;20279;-78
2022/07/05 00:54:08;;;;;;;6.03;3.30;;;15.50;99.90;;;;;;5093106;28;20240;-75
2022/07/05 00:56:35;;;;;;;3.05;2.53;;;15.50;99.90;;;;;;5093365;28;20194;-76
2022/07/05 00:59:02;;;;;;;4.38;3.45;;;15.50;99.90;;;;;;5099667;28;20285;-76
2022/07/05 01:01:30;;;;;;;4.85;3.20;;;15.50;99.90;;;;;;5091255;28;20265;-75
2022/07/05 01:03:58;;;;;;;3.05;2.70;;;15.40;99.90;;;;;;5083267;28;20249;-76
2022/07/05 01:06:25;;;;;;;4.57;3.38;;;15.40;99.90;;;;;;5092766;28;20210;-77
2022/07/05 01:08:53;;;;;;;5.45;2.78;;;15.40;99.90;;;;;;5090300;28;20256;-75
2022/07/05 01:11:20;;;;;;;4.30;3.47;;;15.30;99.90;;;;;;5083093;28;20294;-76
2022/07/05 01:13:47;;;;;;;3.95;3.08;;;15.30;99.90;;;;;;5099325;28;20700;-75
2022/07/05 01:16:17;;;;;;;4.80;3.25;;;15.30;99.90;;;;;;5111853;28;20190;-76
2022/07/05 01:18:45;;;;;;;4.45;2.67;;;15.20;99.90;;;;;;5096490;28;20262;-74
2022/07/05 01:21:18;;;;;;;4.88;3.85;;;15.00;99.90;;;;;;5106560;28;20245;-75
2022/07/05 01:23:48;;;;;;;5.63;3.75;;;15.00;99.90;;;;;;5095206;28;20687;-76
2022/07/05 01:26:15;;;;;;;5.28;3.38;;;15.00;99.90;;;;;;5093361;28;20215;-76
2022/07/05 01:28:42;;;;;;;3.90;3.50;;;15.00;99.90;;;;;;5099894;28;20194;-76
2022/07/05 01:31:09;;;;;;;5.90;3.45;;;14.90;99.90;;;;;;5089515;28;20186;-76
2022/07/05 01:33:36;;;;;;;4.15;3.28;;;14.90;99.90;;;;;;5092516;28;20312;-79
2022/07/05 01:36:03;;;;;;;4.32;3.92;;;14.80;99.90;;;;;;5092836;28;20294;-77
2022/07/05 01:38:31;;;;;;;4.05;3.65;;;14.80;99.90;;;;;;5095952;28;20201;-78
2022/07/05 01:40:59;;;;;;;6.65;4.22;;;14.70;99.90;;;;;;5099108;28;20300;-78
2022/07/05 01:43:26;;;;;;;5.05;3.40;;;14.70;99.90;;;;;;5091074;28;20230;-75
2022/07/05 01:45:57;;;;;;;4.85;3.60;;;14.60;99.90;;;;;;5096815;28;20208;-76
2022/07/05 01:48:24;;;;;;;4.78;3.95;;;14.60;99.90;;;;;;5091559;28;20206;-75
2022/07/05 01:50:54;;;;;;;4.85;4.32;;;14.60;99.90;;;;;;5089210;28;20190;-75
2022/07/05 01:53:23;;;;;;;5.47;4.13;;;14.60;99.90;;;;;;5089780;28;20309;-75
2022/07/05 01:55:51;;;;;;;6.80;4.07;;;14.60;99.90;;;;;;5092330;28;20289;-76
2022/07/05 01:58:19;;;;;;;4.78;3.60;;;14.60;99.90;;;;;;5093274;28;20649;-77
2022/07/05 02:00:47;;;;;;;5.85;4.38;;;14.50;99.90;;;;;;5098809;28;20281;-74
2022/07/05 02:03:15;;;;;;;6.82;4.30;;;14.50;99.90;;;;;;5095477;28;20711;-75
2022/07/05 02:05:43;;;;;;;6.00;3.88;;;14.50;99.90;;;;;;5096801;28;20285;-76
2022/07/05 02:08:11;;;;;;;4.43;3.15;;;14.60;99.90;;;;;;5088549;28;20232;-77
2022/07/05 02:10:39;;;;;;;5.88;3.83;;;14.60;99.90;;;;;;5095994;28;20558;-78
2022/07/05 02:13:07;;;;;;;10.27;4.80;;;14.60;99.90;;;;;;5093179;28;20241;-77
2022/07/05 02:15:38;;;;;;;7.60;5.15;;;14.60;99.90;;;;;;5092180;28;20223;-75
2022/07/05 02:18:06;;;;;;;7.35;4.75;;;14.50;99.90;;;;;;5092557;28;20773;-75
2022/07/05 02:20:35;;;;;;;8.63;4.88;;;14.50;99.90;;;;;;5088555;28;20218;-75
2022/07/05 02:23:02;;;;;;;4.47;4.05;;;14.50;99.90;;;;;;5093631;28;20224;-75
2022/07/05 02:25:29;;;;;;;4.95;3.97;;;14.60;99.90;;;;;;5095454;28;20237;-75
2022/07/05 02:27:56;;;;;;;5.13;4.43;;;14.50;99.90;;;;;;5093265;28;20286;-76
2022/07/05 02:30:23;;;;;;;6.43;4.72;;;14.40;99.90;;;;;;5093606;28;20286;-76
2022/07/05 02:32:51;;;;;;;4.50;4.10;;;14.40;99.90;;;;;;5091233;28;20225;-76
2022/07/05 02:35:18;;;;;;;8.65;5.63;;;14.40;99.90;;;;;;5093513;28;20198;-77
2022/07/05 02:37:45;;;;;;;6.43;5.40;;;14.50;99.90;;;;;;5089349;28;20208;-74
2022/07/05 02:40:13;;;;;;;12.50;5.18;;;14.30;99.90;;;;;;5095819;28;20225;-76
2022/07/05 02:42:42;;;;;;;6.22;4.50;;;14.30;99.90;;;;;;5108571;28;20228;-76
2022/07/05 02:45:10;;;;;;;6.22;5.72;;;14.30;99.90;;;;;;5093356;28;20202;-75
2022/07/05 02:47:37;;;;;;;5.95;5.45;;;14.20;99.90;;;;;;5095075;28;20285;-77
2022/07/05 02:50:06;;;;;;;5.53;5.00;;;14.20;99.90;;;;;;5094056;28;20285;-74
2022/07/05 02:52:33;;;;;;;13.02;6.47;;;14.30;99.90;;;;;;5091508;28;20309;-78
2022/07/05 02:55:00;;;;;;;7.53;4.60;;;14.30;99.90;;;;;;5095698;28;20212;-76
2022/07/05 02:57:27;;;;;;;5.53;5.03;;;14.20;99.90;;;;;;5104567;28;20199;-75
2022/07/05 02:59:54;;;;;;;4.70;4.30;;;14.20;99.90;;;;;;5091693;28;20273;-74
2022/07/05 03:02:21;;;;;;;5.35;4.85;;;14.20;99.90;;;;;;5095120;28;20229;-76
2022/07/05 03:04:48;;;;;;;7.25;5.07;;;14.20;99.90;;;;;;5094439;28;20205;-77
2022/07/05 03:07:16;;;;;;;7.13;4.75;;;14.20;99.90;;;;;;5094948;28;20392;-76
2022/07/05 03:09:43;;;;;;;6.82;5.13;;;14.20;99.90;;;;;;5095413;28;20289;-77
2022/07/05 03:12:10;;;;;;;5.68;5.05;;;14.20;99.90;;;;;;5094152;28;20202;-76
2022/07/05 03:14:37;;;;;;;9.05;7.00;;;14.20;99.90;;;;;;5096747;28;20198;-76
2022/07/05 03:17:04;;;;;;;6.15;4.90;;;14.10;99.90;;;;;;5094433;28;20255;-78
2022/07/05 03:19:31;;;;;;;4.65;4.22;;;14.10;99.90;;;;;;5116166;28;20185;-76
2022/07/05 03:22:00;;;;;;;8.27;6.38;;;14.10;99.90;;;;;;5103659;28;20218;-75
2022/07/05 03:24:28;;;;;;;8.95;8.05;;;14.20;99.90;;;;;;5114760;28;20244;-76
2022/07/05 03:26:55;;;;;;;5.40;4.88;;;14.10;99.90;;;;;;5093885;28;20738;-75
2022/07/05 03:29:22;;;;;;;6.03;5.53;;;14.10;99.90;;;;;;5096170;28;20289;-76
2022/07/05 03:31:49;;;;;;;5.95;5.38;;;14.10;99.90;;;;;;5094169;28;20247;-76
2022/07/05 03:34:16;;;;;;;7.13;5.57;;;14.10;99.90;;;;;;5093600;28;20245;-75
2022/07/05 03:36:43;;;;;;;5.93;5.43;;;14.10;99.90;;;;;;5095380;28;20195;-76
2022/07/05 03:39:09;;;;;;;8.57;5.68;;;14.10;99.90;;;;;;5091769;28;20198;-76
2022/07/05 03:41:38;;;;;;;5.50;5.00;;;14.10;99.90;;;;;;5089187;28;20269;-74
2022/07/05 03:44:05;;;;;;;5.25;4.75;;;14.10;99.90;;;;;;5092997;28;20218;-76
2022/07/05 03:46:32;;;;;;;7.55;5.50;;;14.10;99.90;;;;;;5094625;28;20211;-77
2022/07/05 03:48:59;;;;;;;5.50;5.00;;;14.10;99.90;;;;;;5094454;28;20241;-78
2022/07/05 03:51:26;;;;;;;6.05;5.00;;;14.20;99.90;;;;;;5086110;28;20281;-76
2022/07/05 03:53:52;;;;;;;8.93;5.00;;;14.10;99.90;;;;;;5094999;28;20237;-77
2022/07/05 03:56:22;;;;;;;5.93;4.85;;;14.20;99.90;;;;;;5092651;28;20198;-75
2022/07/05 03:58:51;;;;;;;4.90;4.07;;;14.20;99.90;;;;;;5090709;28;20202;-76
2022/07/05 04:01:18;;;;;;;5.85;4.95;;;14.30;99.90;;;;;;5092540;28;20666;-75
2022/07/05 04:03:45;;;;;;;6.50;4.40;;;14.30;99.90;;;;;;5094285;28;20224;-75
2022/07/05 04:06:16;;;;;;;9.65;5.10;;;14.40;99.90;;;;;;5099549;28;20650;-74
2022/07/05 04:08:43;;;;;;;5.82;5.22;;;14.40;99.90;;;;;;5089065;28;20229;-76
2022/07/05 04:11:12;;;;;;;5.45;4.95;;;14.50;99.90;;;;;;5093297;28;20293;-75
2022/07/05 04:13:40;;;;;;;4.80;4.10;;;15.00;99.90;;;;;;5085622;28;20222;-75
2022/07/05 04:16:08;;;;;;;6.03;4.13;;;16.00;99.90;;;;;;5094112;28;20721;-76
2022/07/05 04:18:35;;;;;;;4.63;4.20;;;16.90;99.90;;;;;;5092849;28;20207;-75
2022/07/05 04:21:02;;;;;;;3.70;3.20;;;17.70;99.90;;;;;;5092576;28;20582;-76
2022/07/05 04:23:29;;;;;;;3.50;3.07;;;18.70;99.90;;;;;;5088884;28;20468;-75
2022/07/05 04:25:56;;;;;;;4.30;3.30;;;19.70;99.90;;;;;;5089716;28;20459;-77
2022/07/05 04:28:23;;;;;;;4.60;3.30;;;20.30;99.90;;;;;;5093289;28;20467;-78
2022/07/05 04:30:50;;;;;;;4.80;3.87;;;21.00;99.90;;;;;;5088347;28;20439;-74
2022/07/05 04:33:18;;;;;;;3.93;2.93;;;21.50;99.20;;;;;;5092471;28;20520;-75
2022/07/05 04:35:45;;;;;;;4.37;2.47;;;22.00;97.50;;;;;;5092988;28;20506;-75
2022/07/05 04:38:12;;;;;;;5.50;3.43;;;22.60;96.40;;;;;;5093566;28;20523;-77
2022/07/05 04:40:40;;;;;;;5.17;3.20;;;23.10;93.80;;;;;;5092014;28;20570;-79
2022/07/05 04:43:07;;;;;;;2.83;2.63;;;23.30;92.90;;;;;;5091730;28;20476;-77
2022/07/05 04:45:34;;;;;;;3.73;2.80;;;23.50;92.60;;;;;;5099113;28;20523;-74
2022/07/05 04:48:01;;;;;;;6.87;2.70;;;23.90;91.50;;;;;;5093034;28;21014;-74
2022/07/05 04:50:30;;;;;;;5.53;3.20;;;24.20;90.80;;;;;;5092190;28;20871;-76
2022/07/05 04:52:56;;;;;;;2.60;2.40;;;24.60;90.20;;;;;;5083543;28;20463;-76
2022/07/05 04:55:23;;;;;;;3.00;2.33;;;25.30;89.10;;;;;;5090212;28;20448;-77
2022/07/05 04:57:51;;;;;;;7.43;2.67;;;25.90;86.40;;;;;;5089509;28;20450;-77
2022/07/05 05:00:18;;;;;;;4.40;3.23;;;26.40;83.70;;;;;;5093012;28;20483;-74
2022/07/05 05:02:45;;;;;;;3.53;2.40;;;26.00;82.90;;;;;;5086717;28;20566;-76
2022/07/05 05:05:12;;;;;;;4.20;2.33;;;25.90;82.30;;;;;;5091772;28;20527;-74
2022/07/05 05:07:44;;;;;;;3.90;2.67;;;25.70;82.90;;;;;;5090801;28;20950;-74
2022/07/05 05:10:12;;;;;;;2.60;2.40;;;25.80;82.50;;;;;;5084787;28;20497;-76
2022/07/05 05:12:39;;;;;;;3.30;2.10;;;25.90;82.20;;;;;;5092447;28;20553;-74
2022/07/05 05:15:09;;;;;;;3.60;1.73;;;26.30;81.10;;;;;;5093943;28;20506;-75
2022/07/05 05:17:37;;;;;;;3.07;2.33;;;26.50;80.30;;;;;;5101263;28;20432;-75
2022/07/05 05:20:07;;;;;;;4.13;2.00;;;27.20;78.70;;;;;;5107907;28;20436;-75
2022/07/05 05:22:34;;;;;;;2.40;2.10;;;27.30;76.90;;;;;;5095527;28;20488;-76
2022/07/05 05:25:02;;;;;;;4.40;2.80;;;27.60;76.80;;;;;;5102666;28;20489;-73
2022/07/05 05:27:29;;;;;;;3.10;2.50;;;27.60;75.30;;;;;;5095856;28;20483;-75
2022/07/05 05:29:56;;;;;;;5.97;1.90;;;27.50;74.70;;;;;;5096542;28;20467;-74
2022/07/05 05:32:23;;;;;;;3.90;2.63;;;27.30;74.00;;;;;;5091421;28;20510;-76
2022/07/05 05:34:50;;;;;;;4.10;2.27;;;27.10;74.80;;;;;;5091766;28;20440;-75
2022/07/05 05:37:17;;;;;;;2.70;1.77;;;26.80;74.60;;;;;;5089050;28;20540;-75
2022/07/05 05:39:44;;;;;;;3.03;2.13;;;27.80;74.60;;;;;;5091589;28;20445;-77
2022/07/05 05:42:12;;;;;;;3.40;1.60;;;27.80;73.40;;;;;;5106780;28;20535;-75
2022/07/05 05:44:40;;;;;;;5.83;2.13;;;28.40;72.90;;;;;;5105777;28;20464;-75
2022/07/05 05:47:07;;;;;;;3.20;1.93;;;28.00;71.40;;;;;;5107687;28;20507;-73
2022/07/05 05:49:34;;;;;;;6.67;2.30;;;28.60;71.00;;;;;;5109580;28;20439;-76
2022/07/05 05:52:01;;;;;;;3.00;2.00;;;28.80;69.60;;;;;;5108553;28;20490;-76
2022/07/05 05:54:27;;;;;;;5.83;2.03;;;29.10;69.40;;;;;;5093859;28;20531;-76
2022/07/05 05:56:54;;;;;;;4.23;1.87;;;29.50;68.80;;;;;;5092134;28;20468;-76
2022/07/05 05:59:23;;;;;;;5.37;2.57;;;29.80;67.60;;;;;;5095069;28;20527;-76
2022/07/05 06:01:49;;;;;;;4.10;2.13;;;30.20;66.20;;;;;;5094522;28;20562;-75
2022/07/05 06:04:16;;;;;;;4.70;2.10;;;30.10;65.80;;;;;;5095714;28;20500;-77
2022/07/05 06:06:43;;;;;;;3.43;2.00;;;30.20;65.50;;;;;;5098816;28;20525;-76
2022/07/05 06:09:46;;;;;;;2.10;1.87;;;29.90;66.60;;;;;;5102895;28;20976;-77
2022/07/05 06:12:14;;;;;;;3.10;1.73;;;30.30;66.20;;;;;;5087766;28;20437;-76
2022/07/05 06:14:42;;;;;;;2.10;1.63;;;29.90;64.80;;;;;;5099402;28;20466;-76
2022/07/05 06:17:13;;;;;;;5.13;2.23;;;29.60;65.80;;;;;;5086645;28;20872;-76
2022/07/05 06:19:40;;;;;;;3.50;1.60;;;30.00;65.30;;;;;;5092191;28;20526;-74
2022/07/05 06:22:07;;;;;;;3.97;1.63;;;30.40;64.60;;;;;;5094693;28;20591;-74
2022/07/05 06:24:41;;;;;;;2.70;1.53;;;30.30;64.40;;;;;;5081970;28;20853;-77
2022/07/05 06:27:08;;;;;;;5.10;1.87;;;30.50;64.20;;;;;;5093669;28;20455;-76
2022/07/05 06:29:35;;;;;;;3.00;1.30;;;30.40;63.20;;;;;;5096568;28;20471;-75
2022/07/05 06:32:06;;;;;;;2.73;1.97;;;30.40;63.70;;;;;;5096250;28;20440;-76
2022/07/05 06:34:33;;;;;;;4.77;1.50;;;30.70;63.10;;;;;;5092629;28;20471;-76
2022/07/05 06:37:00;;;;;;;3.23;1.60;;;30.70;62.70;;;;;;5086440;28;20487;-75
2022/07/05 06:39:27;;;;;;;9.93;1.70;;;30.70;62.20;;;;;;5092660;28;20449;-75
2022/07/05 06:41:54;;;;;;;2.10;1.33;;;30.80;61.80;;;;;;5095289;28;20566;-74
2022/07/05 06:44:22;;;;;;;1.97;1.03;;;30.50;61.70;;;;;;5100375;28;20513;-77
2022/07/05 06:46:49;;;;;;;5.47;2.27;;;29.90;62.80;;;;;;5097219;28;20486;-73
2022/07/05 06:49:17;;;;;;;4.33;1.90;;;29.90;63.70;;;;;;5092762;28;20502;-76
2022/07/05 06:51:45;;;;;;;2.23;1.03;;;29.70;63.60;;;;;;5105461;28;20973;-78
2022/07/05 06:54:12;;;;;;;1.97;1.27;;;29.00;64.00;;;;;;5091608;28;20473;-81
2022/07/05 06:56:39;;;;;;;2.73;1.17;;;28.90;65.00;;;;;;5089504;28;20482;-79
2022/07/05 06:59:06;;;;;;;3.20;1.60;;;28.90;65.30;;;;;;5096985;28;20547;-78
2022/07/05 07:01:32;;;;;;;3.23;1.40;;;29.40;64.70;;;;;;5094010;28;20511;-76
2022/07/05 07:03:59;;;;;;;5.03;1.37;;;29.80;65.10;;;;;;5090853;28;21002;-79
2022/07/05 07:06:28;;;;;;;2.90;1.53;;;30.20;64.20;;;;;;5092450;28;20488;-79
2022/07/05 07:11:39;;;;;;;2.07;1.43;;;30.30;61.70;;;;;;5088623;28;20500;-80
2022/07/05 07:14:06;;;;;;;3.43;1.50;;;29.70;62.60;;;;;;5092243;28;20825;-79
2022/07/05 07:16:33;;;;;;;3.03;1.80;;;29.40;62.90;;;;;;5088088;28;20519;-78
2022/07/05 07:19:01;;;;;;;2.33;1.20;;;29.10;63.40;;;;;;5094083;28;21010;-78
2022/07/05 07:21:30;;;;;;;5.17;1.73;;;29.90;63.70;;;;;;5088830;28;20474;-77
2022/07/05 07:23:57;;;;;;;2.70;1.30;;;30.70;63.00;;;;;;5103604;28;20464;-78
2022/07/05 07:26:24;;;;;;;3.77;1.40;;;30.60;60.70;;;;;;5111613;28;20447;-79
2022/07/05 07:28:52;;;;;;;4.70;1.43;;;30.70;61.10;;;;;;5100402;28;20447;-77
2022/07/05 07:31:19;;;;;;;1.53;1.20;;;31.10;59.60;;;;;;5092806;28;20834;-75
2022/07/05 07:33:46;;;;;;;2.63;1.17;;;31.40;58.80;;;;;;5113414;28;20444;-77
2022/07/05 07:36:14;;;;;;;3.90;1.17;;;31.50;59.10;;;;;;5098516;28;20475;-76
2022/07/05 07:38:42;;;;;;;4.43;1.40;;;31.60;58.00;;;;;;5094385;28;20452;-76
2022/07/05 07:41:09;;;;;;;3.73;1.47;;;30.60;58.10;;;;;;5094961;28;20476;-79
2022/07/05 07:43:36;;;;;;;1.93;1.23;;;31.10;58.40;;;;;;5095736;28;20529;-78
2022/07/05 07:46:03;;;;;;;2.37;1.30;;;31.50;59.20;;;;;;5089463;28;20531;-77
2022/07/05 07:48:30;;;;;;;2.97;1.73;;;31.10;57.00;;;;;;5106050;28;20454;-80
2022/07/05 07:50:57;;;;;;;2.77;1.40;;;29.70;59.50;;;;;;5092738;28;20486;-78
2022/07/05 07:53:24;;;;;;;1.63;1.00;;;29.70;60.40;;;;;;5088378;28;20459;-81
2022/07/05 07:55:53;;;;;;;1.90;1.20;;;30.10;60.10;;;;;;5093683;28;20923;-78
2022/07/05 07:58:20;;;;;;;3.00;1.13;;;30.30;60.30;;;;;;5093410;28;20540;-79
2022/07/05 08:00:46;;;;;;;2.97;1.40;;;31.30;58.70;;;;;;5084203;28;20433;-77
2022/07/05 08:03:13;;;;;;;4.50;1.27;;;31.90;57.10;;;;;;5100553;28;20974;-78
2022/07/05 08:05:40;;;;;;;1.50;0.80;;;31.60;56.10;;;;;;5093454;28;21396;-80
2022/07/05 08:08:07;;;;;;;2.43;1.57;;;30.80;56.60;;;;;;5099849;28;20464;-78
2022/07/05 08:10:34;;;;;;;2.50;1.30;;;29.60;58.30;;;;;;5081473;28;20528;-79
2022/07/05 08:13:02;;;;;;;2.87;1.00;;;29.90;58.70;;;;;;5091423;28;20460;-78
2022/07/05 08:15:30;;;;;;;1.60;1.10;;;30.60;58.40;;;;;;5095288;28;20450;-81
2022/07/05 08:23:25;;;;;;;4.13;1.37;;;32.30;52.50;;;;;;5095343;28;20494;-80
2022/07/05 08:25:52;;;;;;;2.70;1.03;;;32.50;53.40;;;;;;5091330;28;20464;-80
2022/07/05 08:28:20;;;;;;;1.87;0.97;;;32.00;52.40;;;;;;5091127;28;20870;-80
2022/07/05 08:30:47;;;;;;;3.03;0.90;;;30.60;54.20;;;;;;5089670;28;20520;-81
2022/07/05 08:33:14;;;;;;;2.00;1.00;;;30.70;53.90;;;;;;5091996;28;20496;-78
2022/07/05 08:35:41;;;;;;;1.73;0.93;;;30.60;53.50;;;;;;5086250;28;20531;-79
2022/07/05 08:38:08;;;;;;;2.37;1.03;;;31.00;52.70;;;;;;5103216;28;20522;-77
2022/07/05 08:40:41;;;;;;;1.73;1.00;;;31.20;52.50;;;;;;5095103;28;20533;-78
2022/07/05 08:43:10;;;;;;;4.77;1.10;;;32.00;50.00;;;;;;5095424;28;20489;-79
2022/07/05 08:45:40;;;;;;;0.90;0.53;;;30.40;49.80;;;;;;5094539;28;20437;-79
2022/07/05 08:48:09;;;;;;;3.03;1.20;;;29.10;53.20;;;;;;5098752;28;20440;-79
2022/07/05 08:50:38;;;;;;;1.83;0.70;;;29.10;54.80;;;;;;5100900;28;20459;-78
2022/07/05 08:53:07;;;;;;;2.17;1.10;;;30.30;55.00;;;;;;5106767;28;20546;-78
2022/07/05 08:55:34;;;;;;;2.40;1.20;;;30.00;52.50;;;;;;5097900;28;20448;-78
2022/07/05 08:58:01;;;;;;;7.70;1.00;;;29.20;52.00;;;;;;5097980;28;20480;-79
2022/07/05 09:00:29;;;;;;;2.30;0.77;;;29.40;53.70;;;;;;5105914;28;20448;-78
2022/07/05 09:02:59;;;;;;;3.33;1.00;;;30.00;53.90;;;;;;5095524;28;20538;-78
2022/07/05 09:05:28;;;;;;;3.93;2.13;;;30.30;54.30;;;;;;5094145;28;20456;-79
2022/07/05 09:07:59;;;;;;;3.33;1.33;;;31.10;53.10;;;;;;5091313;28;20886;-80
2022/07/05 09:10:27;;;;;;;3.43;0.90;;;32.00;51.50;;;;;;5087627;28;20531;-77
2022/07/05 09:12:56;;;;;;;1.43;0.90;;;32.30;50.90;;;;;;5092069;28;21024;-79
2022/07/05 09:15:23;;;;;;;2.63;1.00;;;31.60;50.00;;;;;;5080935;28;20506;-78
2022/07/05 09:17:51;;;;;;;1.80;1.00;;;32.20;50.50;;;;;;5093340;28;20979;-79
2022/07/05 09:20:20;;;;;;;1.33;0.80;;;32.80;49.40;;;;;;5093092;28;20467;-79
2022/07/05 09:22:52;;;;;;;2.77;0.83;;;32.00;50.10;;;;;;5097600;28;20579;-80
2022/07/05 09:25:22;;;;;;;1.60;0.97;;;31.90;51.10;;;;;;5088681;28;20494;-78
2022/07/05 09:27:51;;;;;;;1.30;0.77;;;31.50;51.60;;;;;;5083137;28;20532;-80
2022/07/05 09:30:30;;;;;;;3.67;1.13;;;30.80;52.30;;;;;;5086089;28;20480;-78
2022/07/05 09:33:07;;;;;;;1.70;1.00;;;29.40;53.00;;;;;;5089305;28;20456;-81
2022/07/05 09:35:37;;;;;;;2.17;1.00;;;29.30;53.80;;;;;;5092342;28;20471;-79
2022/07/05 09:38:05;;;;;;;3.90;1.50;;;29.20;54.10;;;;;;5097206;28;20493;-78
2022/07/05 09:40:32;;;;;;;1.47;0.90;;;28.80;54.20;;;;;;5100274;28;20472;-79
2022/07/05 09:43:23;;;;;;;2.17;1.10;;;28.70;54.40;;;;;;5106338;28;20484;-80
2022/07/05 09:45:57;;;;;;;1.97;0.77;;;28.00;54.80;;;;;;5095211;28;20473;-79
2022/07/05 09:48:25;;;;;;;2.00;1.10;;;27.60;56.50;;;;;;5089941;28;20512;-79
2022/07/05 09:51:04;;;;;;;2.87;0.70;;;27.00;57.60;;;;;;5103057;28;20444;-77
2022/07/05 09:53:51;;;;;;;2.00;0.80;;;26.60;58.90;;;;;;5088121;28;20550;-78
2022/07/05 09:56:18;;;;;;;3.70;1.20;;;26.40;59.80;;;;;;5094101;28;20474;-79
2022/07/05 09:58:46;;;;;;;2.80;0.90;;;26.70;59.70;;;;;;5096214;28;20500;-79
2022/07/05 10:01:25;;;;;;;1.60;1.00;;;26.30;59.00;;;;;;5095688;28;20867;-79
2022/07/05 10:03:53;;;;;;;3.13;0.80;;;26.30;59.80;;;;;;5097917;28;20590;-78
2022/07/05 10:06:23;;;;;;;1.93;0.80;;;26.20;60.10;;;;;;5095034;28;20489;-79
2022/07/05 10:08:51;;;;;;;1.33;0.70;;;25.90;60.90;;;;;;5091823;28;20544;-79
2022/07/05 10:11:19;;;;;;;1.73;1.27;;;25.60;63.10;;;;;;5083517;28;20589;-78
2022/07/05 10:13:49;;;;;;;2.00;1.23;;;25.50;62.30;;;;;;5094029;28;20467;-79
2022/07/05 10:16:17;;;;;;;2.57;1.10;;;25.80;62.30;;;;;;5099160;28;20445;-80
2022/07/05 10:18:46;;;;;;;4.43;2.10;;;26.60;61.90;;;;;;5087589;28;20955;-79
2022/07/05 10:21:15;;;;;;;5.20;1.17;;;27.00;61.10;;;;;;5095645;28;20524;-79
2022/07/05 10:23:47;;;;;;;2.00;0.97;;;27.20;60.50;;;;;;5095826;28;20858;-78
2022/07/05 10:26:14;;;;;;;3.63;1.20;;;27.30;60.20;;;;;;5092623;28;20484;-80
2022/07/05 10:28:42;;;;;;;3.13;1.30;;;27.10;60.70;;;;;;5102660;28;20450;-80
2022/07/05 10:31:09;;;;;;;2.70;1.27;;;27.00;60.80;;;;;;5104346;28;20468;-78
2022/07/05 10:33:36;;;;;;;2.13;1.00;;;26.90;61.30;;;;;;5093153;28;20460;-79
2022/07/05 10:36:06;;;;;;;2.00;1.20;;;27.10;60.40;;;;;;5097993;28;20527;-80
2022/07/05 10:38:36;;;;;;;2.43;1.10;;;27.10;60.00;;;;;;5091507;28;20443;-79
2022/07/05 10:41:09;;;;;;;3.23;1.30;;;26.80;60.40;;;;;;5095721;28;20539;-79
2022/07/05 10:43:36;;;;;;;4.60;1.00;;;26.90;60.10;;;;;;5103602;28;20523;-77
2022/07/05 10:46:07;;;;;;;3.37;1.20;;;26.50;60.60;;;;;;5092941;28;20445;-77
2022/07/05 10:48:35;;;;;;;2.83;1.50;;;25.90;61.70;;;;;;5087933;28;20477;-78
2022/07/05 10:51:15;;;;;;;4.43;1.30;;;25.60;62.70;;;;;;5075662;28;20451;-78
2022/07/05 10:54:03;;;;;;;2.73;1.40;;;25.30;63.40;;;;;;5088549;28;20491;-78
2022/07/05 10:56:31;;;;;;;3.13;1.10;;;25.20;64.90;;;;;;5088619;28;20493;-80
2022/07/05 10:59:11;;;;;;;4.07;1.20;;;25.20;64.80;;;;;;5094889;28;20527;-80
2022/07/05 11:01:42;;;;;;;2.13;0.97;;;25.10;65.00;;;;;;5087953;28;20436;-77
2022/07/05 11:04:34;;;;;;;1.87;1.17;;;25.10;65.20;;;;;;5096440;28;20585;-78
2022/07/05 11:07:01;;;;;;;4.80;1.10;;;24.80;64.10;;;;;;5090018;28;20537;-79
2022/07/05 11:09:29;;;;;;;3.20;1.27;;;24.90;64.40;;;;;;5092184;28;20486;-78
2022/07/05 11:12:13;;;;;;;4.00;1.10;;;24.40;64.10;;;;;;5091708;28;20451;-76
2022/07/05 11:14:46;;;;;;;2.57;1.07;;;24.20;66.10;;;;;;5094455;28;20508;-79
2022/07/05 11:17:30;;;;;;;2.30;1.10;;;24.40;66.60;;;;;;5094753;28;20930;-78
2022/07/05 11:20:10;;;;;;;2.23;1.00;;;24.60;67.70;;;;;;5110983;28;20437;-78
2022/07/05 11:22:40;;;;;;;3.50;1.30;;;25.00;67.00;;;;;;5093099;28;20815;-79
2022/07/05 11:25:11;;;;;;;2.03;1.03;;;25.40;66.40;;;;;;5100964;28;20444;-79
2022/07/05 11:28:06;;;;;;;1.87;1.50;;;25.80;66.20;;;;;;5100453;28;20480;-78
2022/07/05 11:30:50;;;;;;;2.77;1.43;;;25.90;64.70;;;;;;5086778;28;20441;-77
2022/07/05 11:33:42;;;;;;;2.60;1.07;;;25.90;65.20;;;;;;5082298;28;20457;-79
2022/07/05 11:36:32;;;;;;;4.57;1.30;;;25.60;64.70;;;;;;5085764;28;20480;-81
2022/07/05 11:39:12;;;;;;;2.37;0.90;;;25.60;65.20;;;;;;5085651;28;20444;-76
2022/07/05 11:41:39;;;;;;;2.17;1.10;;;25.30;66.30;;;;;;5076349;28;20441;-78
2022/07/05 11:44:08;;;;;;;1.97;1.10;;;25.60;66.20;;;;;;5091046;28;20483;-80
2022/07/05 11:46:35;;;;;;;1.83;1.07;;;25.60;65.60;;;;;;5091432;28;20562;-79
2022/07/05 11:49:02;;;;;;;2.00;1.23;;;25.60;65.80;;;;;;5093169;28;20535;-78
2022/07/05 11:51:30;;;;;;;2.60;0.90;;;25.60;65.10;;;;;;5091003;28;20440;-79
2022/07/05 11:53:57;;;;;;;3.67;1.13;;;25.60;65.40;;;;;;5087571;28;20479;-79
2022/07/05 11:56:25;;;;;;;2.33;1.20;;;25.30;65.20;;;;;;5094060;28;20944;-79
2022/07/05 11:58:51;;;;;;;2.80;1.13;;;25.40;65.90;;;;;;5097038;28;20948;-79
2022/07/05 12:01:21;;;;;;;2.77;1.00;;;25.70;66.70;;;;;;5100712;28;20460;-81
2022/07/05 12:03:57;;;;;;;3.93;1.10;;;25.80;66.70;;;;;;5118699;28;20518;-78
2022/07/05 12:06:27;;;;;;;7.50;1.07;;;25.70;66.20;;;;;;5107889;28;20455;-80
2022/07/05 12:09:04;;;;;;;2.80;1.10;;;25.80;65.80;;;;;;5101417;28;20471;-79
2022/07/05 12:14:26;;;;;;;3.20;1.10;;;25.00;66.10;;;;;;5102462;28;20461;-78
2022/07/05 12:17:14;;;;;;;5.33;1.23;;;24.90;66.50;;;;;;5098460;28;20542;-79
2022/07/05 12:19:41;;;;;;;2.07;1.20;;;25.30;66.90;;;;;;5091622;28;20861;-80
2022/07/05 12:22:07;;;;;;;6.43;1.03;;;25.60;67.00;;;;;;5098728;28;20510;-79
2022/07/05 12:24:35;;;;;;;1.77;0.93;;;25.90;66.80;;;;;;5100336;28;20564;-77
2022/07/05 12:27:02;;;;;;;3.83;1.23;;;26.10;66.40;;;;;;5085103;28;20487;-79
2022/07/05 12:29:31;;;;;;;1.87;1.10;;;26.10;66.20;;;;;;5098823;28;20450;-78
2022/07/05 12:32:02;;;;;;;3.30;1.10;;;25.90;66.40;;;;;;5098893;28;20450;-79
2022/07/05 12:34:31;;;;;;;4.37;1.00;;;25.10;66.40;;;;;;5094401;28;20488;-80
2022/07/05 12:36:58;;;;;;;1.70;1.00;;;24.80;66.90;;;;;;5094430;28;20510;-82
2022/07/05 12:39:25;;;;;;;3.10;1.10;;;24.50;66.30;;;;;;5093042;28;20922;-80
2022/07/05 12:41:53;;;;;;;3.07;1.30;;;24.50;65.90;;;;;;5090020;28;20458;-78
2022/07/05 12:44:21;;;;;;;4.23;0.80;;;24.70;66.70;;;;;;5093432;28;20569;-77
2022/07/05 12:46:50;;;;;;;3.30;1.13;;;24.80;66.30;;;;;;5088872;28;20929;-78
2022/07/05 12:49:19;;;;;;;1.53;0.90;;;24.80;66.30;;;;;;5092696;28;20938;-80
2022/07/05 12:51:47;;;;;;;3.93;1.17;;;24.80;66.80;;;;;;5092142;28;20509;-79
2022/07/05 13:00:03;;;;;;;2.97;1.27;;;25.20;67.50;;;;;;5093761;28;20420;-78
2022/07/05 13:02:40;;;;;;;6.10;1.73;;;25.10;68.00;;;;;;5094018;28;20462;-78
2022/07/05 13:05:09;;;;;;;1.77;0.93;;;25.10;68.30;;;;;;5092315;28;20483;-81
2022/07/05 13:07:44;;;;;;;1.67;1.10;;;24.90;68.40;;;;;;5091643;28;20457;-80
2022/07/05 13:10:16;;;;;;;3.40;1.40;;;24.80;69.20;;;;;;5091739;28;20442;-78